sensor_id;sensor_type;location;lat;lon;timestamp;pressure;altitude;pressure_sealevel;temperature;humidity
11448;BME280;43755;49.736;8.734;2022-11-20T00:02:01;97358.34;;;1.27;100.00
11448;BME280;43755;49.736;8.734;2022-11-20T00:04:02;97359.22;;;1.26;100.00
11448;BME280;43755;49.736;8.734;2022-11-20T00:06:06;97360.09;;;1.25;100.00
11448;BME280;43755;49.736;8.734;2022-11-20T00:08:08;97359.22;;;1.26;100.00
11448;BME280;43755;49.736;8.734;2022-11-20T00:10:10;97357.47;;;1.28;100.00
11448;BME280;43755;49.736;8.734;2022-11-20T00:12:11;97355.75;;;1.24;100.00
11448;BME280;43755;49.736;8.734;2022-11-20T00:14:13;97355.75;;;1.24;100.00
11448;BME280;43755;49.736;8.734;2022-11-20T00:16:16;97358.38;;;1.24;100.00
11448;BME280;43755;49.736;8.734;2022-11-20T00:18:18;97353.97;;;1.29;100.00
11448;BME280;43755;49.736;8.734;2022-11-20T00:20:19;97355.59;;;1.35;100.00
11448;BME280;43755;49.736;8.734;2022-11-20T00:22:22;97343.34;;;1.40;100.00
11448;BME280;43755;49.736;8.734;2022-11-20T00:24:23;97350.28;;;1.41;100.00
11448;BME280;43755;49.736;8.734;2022-11-20T00:26:27;97345.91;;;1.43;100.00
11448;BME280;43755;49.736;8.734;2022-11-20T00:28:29;97346.66;;;1.48;100.00
11448;BME280;43755;49.736;8.734;2022-11-20T00:30:30;97352.69;;;1.53;100.00
11448;BME280;43755;49.736;8.734;2022-11-20T00:32:31;97343.91;;;1.57;100.00
11448;BME280;43755;49.736;8.734;2022-11-20T00:34:33;97350.03;;;1.56;100.00
11448;BME280;43755;49.736;8.734;2022-11-20T00:36:35;97346.63;;;1.51;100.00
11448;BME280;43755;49.736;8.734;2022-11-20T00:38:37;97344.03;;;1.51;100.00
11448;BME280;43755;49.736;8.734;2022-11-20T00:40:39;97347.47;;;1.53;100.00
11448;BME280;43755;49.736;8.734;2022-11-20T00:42:40;97355.31;;;1.53;100.00
11448;BME280;43755;49.736;8.734;2022-11-20T00:44:41;97352.72;;;1.51;100.00
11448;BME280;43755;49.736;8.734;2022-11-20T00:46:43;97339.59;;;1.54;100.00
11448;BME280;43755;49.736;8.734;2022-11-20T00:48:45;97350.03;;;1.54;100.00
11448;BME280;43755;49.736;8.734;2022-11-20T00:50:46;97358.78;;;1.52;100.00
11448;BME280;43755;49.736;8.734;2022-11-20T00:52:47;97343.19;;;1.49;100.00
11448;BME280;43755;49.736;8.734;2022-11-20T00:54:50;97346.63;;;1.51;100.00
11448;BME280;43755;49.736;8.734;2022-11-20T00:56:52;97346.66;;;1.49;100.00
11448;BME280;43755;49.736;8.734;2022-11-20T00:58:53;97341.44;;;1.49;100.00
11448;BME280;43755;49.736;8.734;2022-11-20T01:01:00;97344.00;;;1.52;100.00
11448;BME280;43755;49.736;8.734;2022-11-20T01:03:02;97341.31;;;1.58;100.00
11448;BME280;43755;49.736;8.734;2022-11-20T01:05:03;97338.59;;;1.64;100.00
11448;BME280;43755;49.736;8.734;2022-11-20T01:07:05;97338.59;;;1.63;100.00
11448;BME280;43755;49.736;8.734;2022-11-20T01:09:09;97340.34;;;1.62;100.00
11448;BME280;43755;49.736;8.734;2022-11-20T01:11:15;97338.63;;;1.61;100.00
11448;BME280;43755;49.736;8.734;2022-11-20T01:13:16;97337.66;;;1.65;100.00
11448;BME280;43755;49.736;8.734;2022-11-20T01:15:35;97332.50;;;1.64;100.00
11448;BME280;43755;49.736;8.734;2022-11-20T01:17:37;97332.63;;;1.56;100.00
11448;BME280;43755;49.736;8.734;2022-11-20T01:19:38;97325.59;;;1.61;100.00
11448;BME280;43755;49.736;8.734;2022-11-20T01:21:41;97333.25;;;1.71;100.00
11448;BME280;43755;49.736;8.734;2022-11-20T01:23:43;97329.06;;;1.60;100.00
11448;BME280;43755;49.736;8.734;2022-11-20T01:25:45;97328.22;;;1.60;100.00
11448;BME280;43755;49.736;8.734;2022-11-20T01:27:48;97329.91;;;1.62;100.00
11448;BME280;43755;49.736;8.734;2022-11-20T01:29:49;97334.19;;;1.65;100.00
11448;BME280;43755;49.736;8.734;2022-11-20T01:31:51;97341.19;;;1.64;100.00
11448;BME280;43755;49.736;8.734;2022-11-20T01:33:55;97328.97;;;1.67;100.00
11448;BME280;43755;49.736;8.734;2022-11-20T01:36:03;97339.38;;;1.68;100.00
11448;BME280;43755;49.736;8.734;2022-11-20T01:38:05;97344.59;;;1.67;100.00
11448;BME280;43755;49.736;8.734;2022-11-20T01:40:07;97341.91;;;1.71;100.00
11448;BME280;43755;49.736;8.734;2022-11-20T01:42:09;97339.28;;;1.73;100.00
11448;BME280;43755;49.736;8.734;2022-11-20T01:44:49;97332.31;;;1.75;100.00
11448;BME280;43755;49.736;8.734;2022-11-20T01:46:56;97329.72;;;1.72;100.00
11448;BME280;43755;49.736;8.734;2022-11-20T01:49:02;97326.22;;;1.74;100.00
11448;BME280;43755;49.736;8.734;2022-11-20T01:51:07;97325.31;;;1.77;100.00
11448;BME280;43755;49.736;8.734;2022-11-20T01:53:15;97322.66;;;1.78;100.00
11448;BME280;43755;49.736;8.734;2022-11-20T01:55:21;97315.69;;;1.79;100.00
11448;BME280;43755;49.736;8.734;2022-11-20T01:57:25;97311.31;;;1.82;100.00
11448;BME280;43755;49.736;8.734;2022-11-20T01:59:28;97318.25;;;1.82;100.00
11448;BME280;43755;49.736;8.734;2022-11-20T02:01:32;97317.31;;;1.84;100.00
11448;BME280;43755;49.736;8.734;2022-11-20T02:03:34;97315.69;;;1.79;100.00
11448;BME280;43755;49.736;8.734;2022-11-20T02:05:38;97309.56;;;1.81;100.00
11448;BME280;43755;49.736;8.734;2022-11-20T02:07:43;97319.13;;;1.82;100.00
11448;BME280;43755;49.736;8.734;2022-11-20T02:09:44;97312.09;;;1.86;100.00
11448;BME280;43755;49.736;8.734;2022-11-20T02:11:46;97316.44;;;1.87;100.00
11448;BME280;43755;49.736;8.734;2022-11-20T02:13:48;97315.56;;;1.86;100.00
11448;BME280;43755;49.736;8.734;2022-11-20T02:15:49;97317.22;;;1.90;100.00
11448;BME280;43755;49.736;8.734;2022-11-20T02:17:53;97315.47;;;1.91;100.00
11448;BME280;43755;49.736;8.734;2022-11-20T02:19:54;97311.97;;;1.92;100.00
11448;BME280;43755;49.736;8.734;2022-11-20T02:22:00;97319.78;;;1.92;100.00
11448;BME280;43755;49.736;8.734;2022-11-20T02:24:07;97312.84;;;1.92;100.00
11448;BME280;43755;49.736;8.734;2022-11-20T02:26:12;97311.09;;;1.91;100.00
11448;BME280;43755;49.736;8.734;2022-11-20T02:28:16;97309.38;;;1.92;100.00
11448;BME280;43755;49.736;8.734;2022-11-20T02:30:18;97307.66;;;1.89;100.00
11448;BME280;43755;49.736;8.734;2022-11-20T02:32:20;97295.69;;;1.81;100.00
11448;BME280;43755;49.736;8.734;2022-11-20T02:34:21;97289.63;;;1.79;100.00
11448;BME280;43755;49.736;8.734;2022-11-20T02:36:24;97303.44;;;1.84;100.00
11448;BME280;43755;49.736;8.734;2022-11-20T02:38:27;97289.56;;;1.82;100.00
11448;BME280;43755;49.736;8.734;2022-11-20T02:40:30;97301.66;;;1.86;100.00
11448;BME280;43755;49.736;8.734;2022-11-20T02:42:31;97299.06;;;1.86;100.00
11448;BME280;43755;49.736;8.734;2022-11-20T02:44:32;97292.09;;;1.85;100.00
11448;BME280;43755;49.736;8.734;2022-11-20T02:46:34;97293.81;;;1.87;100.00
11448;BME280;43755;49.736;8.734;2022-11-20T02:48:36;97298.25;;;1.82;100.00
11448;BME280;43755;49.736;8.734;2022-11-20T02:50:38;97294.78;;;1.82;100.00
11448;BME280;43755;49.736;8.734;2022-11-20T02:52:40;97288.72;;;1.81;100.00
11448;BME280;43755;49.736;8.734;2022-11-20T02:54:41;97288.84;;;1.75;100.00
11448;BME280;43755;49.736;8.734;2022-11-20T02:56:44;97289.56;;;1.82;100.00
11448;BME280;43755;49.736;8.734;2022-11-20T02:58:45;97296.41;;;1.87;100.00
11448;BME280;43755;49.736;8.734;2022-11-20T03:00:47;97297.41;;;1.82;100.00
11448;BME280;43755;49.736;8.734;2022-11-20T03:02:48;97293.13;;;1.78;100.00
11448;BME280;43755;49.736;8.734;2022-11-20T03:04:49;97288.75;;;1.80;100.00
11448;BME280;43755;49.736;8.734;2022-11-20T03:06:51;97291.22;;;1.86;100.00
11448;BME280;43755;49.736;8.734;2022-11-20T03:08:52;97295.53;;;1.88;100.00
11448;BME280;43755;49.736;8.734;2022-11-20T03:10:54;97298.16;;;1.88;100.00
11448;BME280;43755;49.736;8.734;2022-11-20T03:12:56;97297.19;;;1.92;100.00
11448;BME280;43755;49.736;8.734;2022-11-20T03:14:58;97302.38;;;1.94;100.00
11448;BME280;43755;49.736;8.734;2022-11-20T03:17:00;97299.78;;;1.92;100.00
11448;BME280;43755;49.736;8.734;2022-11-20T03:19:01;97301.47;;;1.95;100.00
11448;BME280;43755;49.736;8.734;2022-11-20T03:21:03;97306.72;;;1.93;100.00
11448;BME280;43755;49.736;8.734;2022-11-20T03:23:04;97292.81;;;1.94;100.00
11448;BME280;43755;49.736;8.734;2022-11-20T03:25:06;97296.34;;;1.90;100.00
11448;BME280;43755;49.736;8.734;2022-11-20T03:27:08;97298.94;;;1.90;100.00
11448;BME280;43755;49.736;8.734;2022-11-20T03:29:10;97298.03;;;1.94;100.00
11448;BME280;43755;49.736;8.734;2022-11-20T03:31:14;97293.72;;;1.90;100.00
11448;BME280;43755;49.736;8.734;2022-11-20T03:33:16;97292.94;;;1.88;100.00
11448;BME280;43755;49.736;8.734;2022-11-20T03:35:17;97309.34;;;1.93;100.00
11448;BME280;43755;49.736;8.734;2022-11-20T03:37:18;97308.50;;;1.91;100.00
11448;BME280;43755;49.736;8.734;2022-11-20T03:39:20;97310.09;;;1.98;100.00
11448;BME280;43755;49.736;8.734;2022-11-20T03:41:23;97312.63;;;2.03;100.00
11448;BME280;43755;49.736;8.734;2022-11-20T03:43:24;97308.22;;;2.05;100.00
11448;BME280;43755;49.736;8.734;2022-11-20T03:45:27;97303.94;;;2.01;100.00
11448;BME280;43755;49.736;8.734;2022-11-20T03:47:28;97308.31;;;2.00;100.00
11448;BME280;43755;49.736;8.734;2022-11-20T03:49:30;97308.47;;;1.94;100.00
11448;BME280;43755;49.736;8.734;2022-11-20T03:51:32;97309.47;;;1.86;100.00
11448;BME280;43755;49.736;8.734;2022-11-20T03:53:34;97309.34;;;1.93;100.00
11448;BME280;43755;49.736;8.734;2022-11-20T03:55:36;97317.09;;;1.96;100.00
11448;BME280;43755;49.736;8.734;2022-11-20T03:57:37;97309.16;;;2.01;100.00
11448;BME280;43755;49.736;8.734;2022-11-20T03:59:38;97308.38;;;1.97;100.00
11448;BME280;43755;49.736;8.734;2022-11-20T04:01:41;97303.16;;;1.97;100.00
11448;BME280;43755;49.736;8.734;2022-11-20T04:03:43;97310.03;;;2.01;100.00
11448;BME280;43755;49.736;8.734;2022-11-20T04:05:45;97310.03;;;2.01;100.00
11448;BME280;43755;49.736;8.734;2022-11-20T04:07:46;97312.50;;;2.09;100.00
11448;BME280;43755;49.736;8.734;2022-11-20T04:09:48;97304.69;;;2.08;100.00
11448;BME280;43755;49.736;8.734;2022-11-20T04:11:49;97301.34;;;2.01;100.00
11448;BME280;43755;49.736;8.734;2022-11-20T04:13:52;97305.66;;;2.02;100.00
11448;BME280;43755;49.736;8.734;2022-11-20T04:15:56;97303.94;;;2.01;100.00
11448;BME280;43755;49.736;8.734;2022-11-20T04:17:59;97304.03;;;1.96;100.00
11448;BME280;43755;49.736;8.734;2022-11-20T04:20:00;97305.75;;;1.99;100.00
11448;BME280;43755;49.736;8.734;2022-11-20T04:22:02;97297.91;;;1.99;100.00
11448;BME280;43755;49.736;8.734;2022-11-20T04:24:04;97293.50;;;2.01;100.00
11448;BME280;43755;49.736;8.734;2022-11-20T04:26:07;97295.34;;;1.97;100.00
11448;BME280;43755;49.736;8.734;2022-11-20T04:28:09;97290.22;;;1.93;100.00
11448;BME280;43755;49.736;8.734;2022-11-20T04:30:11;97291.13;;;1.90;100.00
11448;BME280;43755;49.736;8.734;2022-11-20T04:32:13;97290.97;;;1.99;100.00
11448;BME280;43755;49.736;8.734;2022-11-20T04:34:16;97282.09;;;2.06;100.00
11448;BME280;43755;49.736;8.734;2022-11-20T04:36:18;97282.09;;;2.06;100.00
11448;BME280;43755;49.736;8.734;2022-11-20T04:38:20;97281.19;;;2.09;100.00
11448;BME280;43755;49.736;8.734;2022-11-20T04:40:21;97277.72;;;2.09;100.00
11448;BME280;43755;49.736;8.734;2022-11-20T04:42:23;97280.22;;;2.13;100.00
11448;BME280;43755;49.736;8.734;2022-11-20T04:44:29;97278.56;;;2.11;100.00
11448;BME280;43755;49.736;8.734;2022-11-20T04:46:31;97273.25;;;2.14;100.00
11448;BME280;43755;49.736;8.734;2022-11-20T04:48:34;97277.66;;;2.12;100.00
11448;BME280;43755;49.736;8.734;2022-11-20T04:50:40;97277.59;;;2.15;100.00
11448;BME280;43755;49.736;8.734;2022-11-20T04:52:42;97269.03;;;2.08;100.00
11448;BME280;43755;49.736;8.734;2022-11-20T04:54:43;97276.94;;;2.05;100.00
11448;BME280;43755;49.736;8.734;2022-11-20T04:56:44;97271.75;;;2.03;100.00
11448;BME280;43755;49.736;8.734;2022-11-20T04:58:46;97274.13;;;2.13;100.00
11448;BME280;43755;49.736;8.734;2022-11-20T05:00:47;97262.84;;;2.12;100.00
11448;BME280;43755;49.736;8.734;2022-11-20T05:02:51;97273.22;;;2.17;100.00
11448;BME280;43755;49.736;8.734;2022-11-20T05:04:53;97265.28;;;2.21;100.00
11448;BME280;43755;49.736;8.734;2022-11-20T05:06:55;97263.50;;;2.23;100.00
11448;BME280;43755;49.736;8.734;2022-11-20T05:08:57;97266.16;;;2.20;100.00
11448;BME280;43755;49.736;8.734;2022-11-20T05:11:02;97268.75;;;2.22;100.00
11448;BME280;43755;49.736;8.734;2022-11-20T05:13:03;97264.50;;;2.18;100.00
11448;BME280;43755;49.736;8.734;2022-11-20T05:15:05;97267.94;;;2.18;100.00
11448;BME280;43755;49.736;8.734;2022-11-20T05:17:10;97263.53;;;2.22;100.00
11448;BME280;43755;49.736;8.734;2022-11-20T05:19:11;97260.84;;;2.25;100.00
11448;BME280;43755;49.736;8.734;2022-11-20T05:21:13;97265.13;;;2.29;100.00
11448;BME280;43755;49.736;8.734;2022-11-20T05:23:16;97271.13;;;2.32;100.00
11448;BME280;43755;49.736;8.734;2022-11-20T05:25:17;97266.66;;;2.36;100.00
11448;BME280;43755;49.736;8.734;2022-11-20T05:27:18;97267.47;;;2.39;100.00
11448;BME280;43755;49.736;8.734;2022-11-20T05:29:20;97266.50;;;2.43;100.00
11448;BME280;43755;49.736;8.734;2022-11-20T05:31:23;97271.69;;;2.46;100.00
11448;BME280;43755;49.736;8.734;2022-11-20T05:33:25;97267.25;;;2.50;100.00
11448;BME280;43755;49.736;8.734;2022-11-20T05:35:26;97262.84;;;2.52;100.00
11448;BME280;43755;49.736;8.734;2022-11-20T05:37:27;97264.72;;;2.47;100.00
11448;BME280;43755;49.736;8.734;2022-11-20T05:39:30;97264.75;;;2.44;100.00
11448;BME280;43755;49.736;8.734;2022-11-20T05:41:34;97256.91;;;2.45;100.00
11448;BME280;43755;49.736;8.734;2022-11-20T05:43:37;97264.63;;;2.50;100.00
11448;BME280;43755;49.736;8.734;2022-11-20T05:45:39;97261.03;;;2.54;100.00
11448;BME280;43755;49.736;8.734;2022-11-20T05:47:41;97258.50;;;2.53;100.00
11448;BME280;43755;49.736;8.734;2022-11-20T05:49:42;97259.25;;;2.58;100.00
11448;BME280;43755;49.736;8.734;2022-11-20T05:51:43;97266.09;;;2.62;100.00
11448;BME280;43755;49.736;8.734;2022-11-20T05:53:45;97259.16;;;2.61;100.00
11448;BME280;43755;49.736;8.734;2022-11-20T05:55:56;97257.38;;;2.63;100.00
11448;BME280;43755;49.736;8.734;2022-11-20T05:57:57;97267.78;;;2.64;100.00
11448;BME280;43755;49.736;8.734;2022-11-20T05:59:58;97270.41;;;2.64;100.00
11448;BME280;43755;49.736;8.734;2022-11-20T06:02:00;97265.13;;;2.66;100.00
11448;BME280;43755;49.736;8.734;2022-11-20T06:04:02;97254.69;;;2.66;100.00
11448;BME280;43755;49.736;8.734;2022-11-20T06:06:04;97261.66;;;2.65;100.00
11448;BME280;43755;49.736;8.734;2022-11-20T06:08:06;97255.59;;;2.65;100.00
11448;BME280;43755;49.736;8.734;2022-11-20T06:10:08;97256.28;;;2.71;100.00
11448;BME280;43755;49.736;8.734;2022-11-20T06:12:11;97251.91;;;2.72;100.00
11448;BME280;43755;49.736;8.734;2022-11-20T06:14:12;97244.88;;;2.75;100.00
11448;BME280;43755;49.736;8.734;2022-11-20T06:16:15;97247.44;;;2.77;100.00
11448;BME280;43755;49.736;8.734;2022-11-20T06:18:17;97249.97;;;2.81;100.00
11448;BME280;43755;49.736;8.734;2022-11-20T06:20:19;97246.41;;;2.84;100.00
11448;BME280;43755;49.736;8.734;2022-11-20T06:22:20;97250.78;;;2.83;100.00
11448;BME280;43755;49.736;8.734;2022-11-20T06:24:22;97247.22;;;2.87;100.00
11448;BME280;43755;49.736;8.734;2022-11-20T06:26:26;97253.22;;;2.89;100.00
11448;BME280;43755;49.736;8.734;2022-11-20T06:28:29;97248.22;;;2.82;100.00
11448;BME280;43755;49.736;8.734;2022-11-20T06:30:31;97256.13;;;2.77;100.00
11448;BME280;43755;49.736;8.734;2022-11-20T06:32:33;97263.94;;;2.79;100.00
11448;BME280;43755;49.736;8.734;2022-11-20T06:34:34;97266.69;;;2.74;100.00
11448;BME280;43755;49.736;8.734;2022-11-20T06:36:35;97265.78;;;2.75;100.00
11448;BME280;43755;49.736;8.734;2022-11-20T06:38:38;97266.69;;;2.74;100.00
11448;BME280;43755;49.736;8.734;2022-11-20T06:40:40;97260.47;;;2.78;100.00
11448;BME280;43755;49.736;8.734;2022-11-20T06:42:41;97256.00;;;2.83;100.00
11448;BME280;43755;49.736;8.734;2022-11-20T06:44:44;97260.34;;;2.83;100.00
11448;BME280;43755;49.736;8.734;2022-11-20T06:46:45;97254.31;;;2.82;100.00
11448;BME280;43755;49.736;8.734;2022-11-20T06:48:47;97269.16;;;2.79;100.00
11448;BME280;43755;49.736;8.734;2022-11-20T06:50:49;97277.03;;;2.77;100.00
11448;BME280;43755;49.736;8.734;2022-11-20T06:52:50;97270.91;;;2.80;100.00
11448;BME280;43755;49.736;8.734;2022-11-20T06:54:52;97271.59;;;2.86;100.00
11448;BME280;43755;49.736;8.734;2022-11-20T06:56:53;97263.81;;;2.85;100.00
11448;BME280;43755;49.736;8.734;2022-11-20T06:58:55;97264.53;;;2.90;100.00
11448;BME280;43755;49.736;8.734;2022-11-20T07:00:59;97262.72;;;2.94;100.00
11448;BME280;43755;49.736;8.734;2022-11-20T07:03:02;97249.63;;;2.95;100.00
11448;BME280;43755;49.736;8.734;2022-11-20T07:05:04;97258.44;;;2.91;100.00
11448;BME280;43755;49.736;8.734;2022-11-20T07:07:05;97266.22;;;2.94;100.00
11448;BME280;43755;49.736;8.734;2022-11-20T07:09:07;97267.97;;;2.94;100.00
11448;BME280;43755;49.736;8.734;2022-11-20T07:11:11;97267.00;;;2.96;100.00
11448;BME280;43755;49.736;8.734;2022-11-20T07:13:14;97266.09;;;2.99;100.00
11448;BME280;43755;49.736;8.734;2022-11-20T07:15:15;97269.66;;;2.95;100.00
11448;BME280;43755;49.736;8.734;2022-11-20T07:17:18;97267.97;;;2.94;100.00
11448;BME280;43755;49.736;8.734;2022-11-20T07:19:19;97271.44;;;2.94;100.00
11448;BME280;43755;49.736;8.734;2022-11-20T07:21:21;97272.22;;;2.98;100.00
11448;BME280;43755;49.736;8.734;2022-11-20T07:23:22;97264.28;;;3.01;100.00
11448;BME280;43755;49.736;8.734;2022-11-20T07:25:24;97264.13;;;3.07;100.00
11448;BME280;43755;49.736;8.734;2022-11-20T07:27:26;97269.31;;;3.08;100.00
11448;BME280;43755;49.736;8.734;2022-11-20T07:29:27;97267.59;;;3.07;100.00
11448;BME280;43755;49.736;8.734;2022-11-20T07:31:28;97271.19;;;3.03;100.00
11448;BME280;43755;49.736;8.734;2022-11-20T07:33:31;97268.69;;;3.00;100.00
11448;BME280;43755;49.736;8.734;2022-11-20T07:35:32;97265.97;;;3.03;100.00
11448;BME280;43755;49.736;8.734;2022-11-20T07:37:34;97261.63;;;3.02;100.00
11448;BME280;43755;49.736;8.734;2022-11-20T07:39:35;97265.81;;;3.09;100.00
11448;BME280;43755;49.736;8.734;2022-11-20T07:41:37;97266.72;;;3.08;100.00
11448;BME280;43755;49.736;8.734;2022-11-20T07:43:38;97265.69;;;3.14;100.00
11448;BME280;43755;49.736;8.734;2022-11-20T07:45:39;97266.50;;;3.17;100.00
11448;BME280;43755;49.736;8.734;2022-11-20T07:47:41;97262.97;;;3.18;100.00
11448;BME280;43755;49.736;8.734;2022-11-20T07:49:44;97267.22;;;3.24;100.00
11448;BME280;43755;49.736;8.734;2022-11-20T07:51:45;97276.59;;;3.31;100.00
11448;BME280;43755;49.736;8.734;2022-11-20T07:53:46;97278.50;;;3.24;100.00
11448;BME280;43755;49.736;8.734;2022-11-20T07:55:48;97276.00;;;3.20;100.00
11448;BME280;43755;49.736;8.734;2022-11-20T07:57:54;97281.31;;;3.17;100.00
11448;BME280;43755;49.736;8.734;2022-11-20T07:59:56;97290.06;;;3.16;100.00
11448;BME280;43755;49.736;8.734;2022-11-20T08:01:57;97285.44;;;3.25;100.00
11448;BME280;43755;49.736;8.734;2022-11-20T08:03:58;97282.78;;;3.27;100.00
11448;BME280;43755;49.736;8.734;2022-11-20T08:06:01;97285.28;;;3.32;100.00
11448;BME280;43755;49.736;8.734;2022-11-20T08:08:03;97281.63;;;3.39;100.00
11448;BME280;43755;49.736;8.734;2022-11-20T08:10:06;97281.59;;;3.40;100.00
11448;BME280;43755;49.736;8.734;2022-11-20T08:12:08;97283.31;;;3.41;100.00
11448;BME280;43755;49.736;8.734;2022-11-20T08:14:27;97291.03;;;3.46;100.00
11448;BME280;43755;49.736;8.734;2022-11-20T08:16:29;97297.19;;;3.43;100.00
11448;BME280;43755;49.736;8.734;2022-11-20T08:18:30;97303.97;;;3.50;100.00
11448;BME280;43755;49.736;8.734;2022-11-20T08:20:32;97319.72;;;3.13;100.00
11448;BME280;43755;49.736;8.734;2022-11-20T08:22:35;97327.00;;;3.01;100.00
11448;BME280;43755;49.736;8.734;2022-11-20T08:24:36;97337.50;;;2.99;100.00
11448;BME280;43755;49.736;8.734;2022-11-20T08:26:39;97336.78;;;2.93;100.00
11448;BME280;43755;49.736;8.734;2022-11-20T08:28:41;97331.53;;;2.94;100.00
11448;BME280;43755;49.736;8.734;2022-11-20T08:30:42;97340.91;;;3.01;100.00
11448;BME280;43755;49.736;8.734;2022-11-20T08:32:43;97332.16;;;3.04;100.00
11448;BME280;43755;49.736;8.734;2022-11-20T08:34:45;97334.63;;;3.10;100.00
11448;BME280;43755;49.736;8.734;2022-11-20T08:36:46;97338.16;;;3.07;100.00
11448;BME280;43755;49.736;8.734;2022-11-20T08:38:49;97337.50;;;2.99;100.00
11448;BME280;43755;49.736;8.734;2022-11-20T08:40:51;97338.44;;;2.95;100.00
11448;BME280;43755;49.736;8.734;2022-11-20T08:43:06;97331.41;;;2.99;100.00
11448;BME280;43755;49.736;8.734;2022-11-20T08:45:08;97338.34;;;3.00;100.00
11448;BME280;43755;49.736;8.734;2022-11-20T08:47:10;97337.50;;;2.99;100.00
11448;BME280;43755;49.736;8.734;2022-11-20T08:49:14;97348.81;;;3.00;100.00
11448;BME280;43755;49.736;8.734;2022-11-20T08:51:16;97341.75;;;3.03;100.00
11448;BME280;43755;49.736;8.734;2022-11-20T08:53:17;97344.22;;;3.09;100.00
11448;BME280;43755;49.736;8.734;2022-11-20T08:55:20;97338.00;;;3.13;100.00
11448;BME280;43755;49.736;8.734;2022-11-20T08:57:21;97343.16;;;3.18;100.00
11448;BME280;43755;49.736;8.734;2022-11-20T08:59:23;97341.34;;;3.20;100.00
11448;BME280;43755;49.736;8.734;2022-11-20T09:01:25;97346.41;;;3.27;100.00
11448;BME280;43755;49.736;8.734;2022-11-20T09:03:26;97355.16;;;3.25;100.00
11448;BME280;43755;49.736;8.734;2022-11-20T09:05:28;97346.44;;;3.24;100.00
11448;BME280;43755;49.736;8.734;2022-11-20T09:07:29;97345.44;;;3.30;100.00
11448;BME280;43755;49.736;8.734;2022-11-20T09:09:31;97343.50;;;3.38;100.00
11448;BME280;43755;49.736;8.734;2022-11-20T09:11:34;97340.78;;;3.43;100.00
11448;BME280;43755;49.736;8.734;2022-11-20T09:13:36;97340.72;;;3.46;100.00
11448;BME280;43755;49.736;8.734;2022-11-20T09:15:37;97341.50;;;3.48;100.00
11448;BME280;43755;49.736;8.734;2022-11-20T09:17:39;97339.69;;;3.51;100.00
11448;BME280;43755;49.736;8.734;2022-11-20T09:19:40;97336.06;;;3.57;100.00
11448;BME280;43755;49.736;8.734;2022-11-20T09:21:42;97345.50;;;3.62;100.00
11448;BME280;43755;49.736;8.734;2022-11-20T09:23:43;97340.13;;;3.68;100.00
11448;BME280;43755;49.736;8.734;2022-11-20T09:25:45;97345.19;;;3.75;100.00
11448;BME280;43755;49.736;8.734;2022-11-20T09:27:54;97336.22;;;3.83;100.00
11448;BME280;43755;49.736;8.734;2022-11-20T09:29:55;97335.31;;;3.86;100.00
11448;BME280;43755;49.736;8.734;2022-11-20T09:31:56;97346.63;;;3.86;100.00
11448;BME280;43755;49.736;8.734;2022-11-20T09:33:58;97336.88;;;3.91;100.00
11448;BME280;43755;49.736;8.734;2022-11-20T09:35:59;97345.63;;;3.90;100.00
11448;BME280;43755;49.736;8.734;2022-11-20T09:38:05;97350.00;;;3.90;100.00
11448;BME280;43755;49.736;8.734;2022-11-20T09:40:19;97347.31;;;3.93;100.00
11448;BME280;43755;49.736;8.734;2022-11-20T09:42:31;97352.63;;;3.90;100.00
11448;BME280;43755;49.736;8.734;2022-11-20T09:44:43;97351.75;;;3.89;100.00
11448;BME280;43755;49.736;8.734;2022-11-20T09:46:53;97345.69;;;3.89;100.00
11448;BME280;43755;49.736;8.734;2022-11-20T09:49:07;97344.72;;;3.93;100.00
11448;BME280;43755;49.736;8.734;2022-11-20T09:51:26;97346.34;;;3.97;100.00
11448;BME280;43755;49.736;8.734;2022-11-20T09:53:36;97350.53;;;4.02;100.00
11448;BME280;43755;49.736;8.734;2022-11-20T09:55:45;97338.25;;;4.06;100.00
11448;BME280;43755;49.736;8.734;2022-11-20T09:57:48;97339.88;;;4.10;100.00
11448;BME280;43755;49.736;8.734;2022-11-20T09:59:56;97341.44;;;4.17;100.00
11448;BME280;43755;49.736;8.734;2022-11-20T10:02:01;97348.38;;;4.18;100.00
11448;BME280;43755;49.736;8.734;2022-11-20T10:04:04;97347.38;;;4.22;100.00
11448;BME280;43755;49.736;8.734;2022-11-20T10:06:11;97341.00;;;4.31;100.00
11448;BME280;43755;49.736;8.734;2022-11-20T10:08:18;97338.28;;;4.35;100.00
11448;BME280;43755;49.736;8.734;2022-11-20T10:10:28;97338.28;;;4.35;100.00
11448;BME280;43755;49.736;8.734;2022-11-20T10:12:41;97334.63;;;4.41;100.00
11448;BME280;43755;49.736;8.734;2022-11-20T10:14:58;97340.72;;;4.41;100.00
11448;BME280;43755;49.736;8.734;2022-11-20T10:17:11;97329.94;;;4.52;100.00
11448;BME280;43755;49.736;8.734;2022-11-20T10:19:27;97329.06;;;4.51;100.00
11448;BME280;43755;49.736;8.734;2022-11-20T10:21:41;97332.44;;;4.55;100.00
11448;BME280;43755;49.736;8.734;2022-11-20T10:24:23;97321.72;;;4.64;100.00
11448;BME280;43755;49.736;8.734;2022-11-20T10:26:32;97321.34;;;4.76;100.00
11448;BME280;43755;49.736;8.734;2022-11-20T10:28:46;97323.81;;;4.81;100.00
11448;BME280;43755;49.736;8.734;2022-11-20T10:30:56;97324.88;;;4.75;100.00
11448;BME280;43755;49.736;8.734;2022-11-20T10:33:04;97329.88;;;4.83;100.00
11448;BME280;43755;49.736;8.734;2022-11-20T10:35:16;97332.56;;;4.80;100.00
11448;BME280;43755;49.736;8.734;2022-11-20T10:37:22;97327.56;;;4.72;100.00
11448;BME280;43755;49.736;8.734;2022-11-20T10:39:31;97327.03;;;4.61;100.00
11448;BME280;43755;49.736;8.734;2022-11-20T10:41:38;97325.38;;;4.59;100.00
11448;BME280;43755;49.736;8.734;2022-11-20T10:43:41;97320.25;;;4.54;100.00
11448;BME280;43755;49.736;8.734;2022-11-20T10:45:48;97323.91;;;4.48;100.00
11448;BME280;43755;49.736;8.734;2022-11-20T10:47:54;97330.00;;;4.49;100.00
11448;BME280;43755;49.736;8.734;2022-11-20T10:50:01;97321.13;;;4.54;100.00
11448;BME280;43755;49.736;8.734;2022-11-20T10:52:11;97323.72;;;4.54;100.00
11448;BME280;43755;49.736;8.734;2022-11-20T10:54:19;97321.19;;;4.53;100.00